createdAt,value
2023-01-08T00:01:24.885Z,9.72
2023-01-08T00:03:52.266Z,9.74
2023-01-08T00:06:23.419Z,9.60
2023-01-08T00:08:50.720Z,9.74
2023-01-08T00:11:17.845Z,9.72
2023-01-08T00:13:45.007Z,9.71
2023-01-08T00:16:16.572Z,9.70
2023-01-08T00:18:46.353Z,9.80
2023-01-08T00:21:14.309Z,9.73
2023-01-08T00:23:41.464Z,9.69
2023-01-08T00:26:10.826Z,9.74
2023-01-08T00:28:38.334Z,9.76
2023-01-08T00:31:11.426Z,9.76
2023-01-08T00:33:39.591Z,9.74
2023-01-08T00:36:16.131Z,9.79
2023-01-08T00:38:44.610Z,9.78
2023-01-08T00:41:14.411Z,9.76
2023-01-08T00:43:41.721Z,9.73
2023-01-08T00:46:09.553Z,9.73
2023-01-08T00:48:39.821Z,9.79
2023-01-08T00:51:09.134Z,9.75
2023-01-08T00:53:37.996Z,9.65
2023-01-08T00:56:09.606Z,9.79
2023-01-08T00:58:36.866Z,9.63
2023-01-08T01:01:12.175Z,9.72
2023-01-08T01:03:40.128Z,9.78
2023-01-08T01:06:08.236Z,9.75
2023-01-08T01:08:35.523Z,9.74
2023-01-08T01:11:16.659Z,9.73
2023-01-08T01:13:43.798Z,9.78
2023-01-08T01:16:11.034Z,9.74
2023-01-08T01:18:38.389Z,9.79
2023-01-08T01:21:25.334Z,9.78
2023-01-08T01:24:02.040Z,9.72
2023-01-08T01:26:30.141Z,9.79
2023-01-08T01:28:58.277Z,9.80
2023-01-08T01:31:28.697Z,9.74
2023-01-08T01:33:56.475Z,9.81
2023-01-08T01:36:24.870Z,9.69
2023-01-08T01:38:55.200Z,9.81
2023-01-08T01:41:33.771Z,9.83
2023-01-08T01:44:43.234Z,9.76
2023-01-08T01:47:30.381Z,9.76
2023-01-08T01:50:22.083Z,9.73
2023-01-08T01:52:59.857Z,9.66
2023-01-08T01:55:28.258Z,9.75
2023-01-08T01:58:08.403Z,9.75
2023-01-08T02:00:35.810Z,9.77
2023-01-08T02:03:05.968Z,9.77
2023-01-08T02:05:51.122Z,9.75
2023-01-08T02:08:37.987Z,9.76
2023-01-08T02:11:22.154Z,9.78
2023-01-08T02:14:04.726Z,9.85
2023-01-08T02:16:54.610Z,9.80
2023-01-08T02:19:49.794Z,9.71
2023-01-08T02:23:08.083Z,9.87
2023-01-08T02:26:07.166Z,9.85
2023-01-08T02:28:43.847Z,9.86
2023-01-08T02:31:13.139Z,9.78
2023-01-08T02:33:40.837Z,9.76
2023-01-08T02:36:44.832Z,9.83
2023-01-08T02:39:48.164Z,9.83
2023-01-08T02:42:40.444Z,9.85
2023-01-08T02:45:35.283Z,9.83
2023-01-08T02:48:31.367Z,9.83
2023-01-08T02:51:13.807Z,9.80
2023-01-08T02:53:49.855Z,9.90
2023-01-08T02:56:24.703Z,9.83
2023-01-08T02:58:54.692Z,9.87
2023-01-08T03:01:24.909Z,9.87
2023-01-08T03:04:02.327Z,9.91
2023-01-08T03:06:31.282Z,9.90
2023-01-08T03:09:00.421Z,9.90
2023-01-08T03:11:40.136Z,9.90
2023-01-08T03:14:19.006Z,9.87
2023-01-08T03:16:55.911Z,9.94
2023-01-08T03:19:32.879Z,9.93
2023-01-08T03:22:03.262Z,9.93
2023-01-08T03:24:37.336Z,9.99
2023-01-08T03:27:10.502Z,9.89
2023-01-08T03:29:40.644Z,9.92
2023-01-08T03:32:15.269Z,9.98
2023-01-08T03:34:47.116Z,10.03
2023-01-08T03:37:20.009Z,10.03
2023-01-08T03:39:58.911Z,10.02
2023-01-08T03:42:30.482Z,9.94
2023-01-08T03:45:00.000Z,9.98
2023-01-08T03:47:31.640Z,10.04
2023-01-08T03:50:03.904Z,10.01
2023-01-08T03:52:32.915Z,10.01
2023-01-08T03:55:00.073Z,9.93
2023-01-08T03:57:27.344Z,10.04
2023-01-08T03:59:54.664Z,9.96
2023-01-08T04:02:22.019Z,9.99
2023-01-08T04:04:49.255Z,10.03
2023-01-08T04:07:16.591Z,10.03
2023-01-08T04:09:43.832Z,10.03
2023-01-08T04:12:10.961Z,10.04
2023-01-08T04:14:38.088Z,9.97
2023-01-08T04:17:05.191Z,9.99
2023-01-08T04:19:32.366Z,9.93
2023-01-08T04:21:59.472Z,9.97
2023-01-08T04:24:26.606Z,10.01
2023-01-08T04:26:53.733Z,9.94
2023-01-08T04:29:20.959Z,9.86
2023-01-08T04:31:48.188Z,10.01
2023-01-08T04:34:15.328Z,9.98
2023-01-08T04:36:42.447Z,9.99
2023-01-08T04:39:11.184Z,10.04
2023-01-08T04:41:38.371Z,9.97
2023-01-08T04:44:05.607Z,9.97
2023-01-08T04:46:32.813Z,9.94
2023-01-08T04:48:59.985Z,9.91
2023-01-08T04:51:27.077Z,9.93
2023-01-08T04:53:54.210Z,9.91
2023-01-08T04:56:21.309Z,9.81
2023-01-08T04:58:48.422Z,9.88
2023-01-08T05:01:23.179Z,9.87
2023-01-08T05:03:56.026Z,9.81
2023-01-08T05:06:24.125Z,9.80
2023-01-08T05:08:51.292Z,9.86
2023-01-08T05:11:18.400Z,9.96
2023-01-08T05:13:48.996Z,9.92
2023-01-08T05:16:16.777Z,9.91
2023-01-08T05:18:45.658Z,9.91
2023-01-08T05:21:13.811Z,9.92
2023-01-08T05:23:47.747Z,9.88
2023-01-08T05:26:16.330Z,9.85
2023-01-08T05:28:43.688Z,9.88
2023-01-08T05:31:12.077Z,9.92
2023-01-08T05:33:40.366Z,9.91
2023-01-08T05:36:09.762Z,9.95
2023-01-08T05:38:37.578Z,9.91
2023-01-08T05:41:06.546Z,9.94
2023-01-08T05:43:34.402Z,9.92
2023-01-08T05:46:03.567Z,9.93
2023-01-08T05:48:34.637Z,9.92
2023-01-08T05:51:03.462Z,9.98
2023-01-08T05:53:32.842Z,9.92
2023-01-08T05:56:09.002Z,9.92
2023-01-08T05:58:36.916Z,9.99
2023-01-08T06:01:08.470Z,9.97
2023-01-08T06:03:36.556Z,10.04
2023-01-08T06:06:06.686Z,10.02
2023-01-08T06:08:34.637Z,9.98
2023-01-08T06:11:06.231Z,10.06
2023-01-08T06:13:35.201Z,9.99
2023-01-08T06:16:02.533Z,9.99
2023-01-08T06:18:30.424Z,10.01
2023-01-08T06:20:57.551Z,9.98
2023-01-08T06:23:24.697Z,10.04
2023-01-08T06:26:01.737Z,9.99
2023-01-08T06:28:28.899Z,9.96
2023-01-08T06:31:01.144Z,9.99
2023-01-08T06:33:30.002Z,9.95
2023-01-08T06:36:04.993Z,9.93
2023-01-08T06:38:34.020Z,9.94
2023-01-08T06:41:04.993Z,9.87
2023-01-08T06:43:34.205Z,9.93
2023-01-08T06:46:09.149Z,9.88
2023-01-08T06:48:37.542Z,9.90
2023-01-08T06:51:05.451Z,9.82
2023-01-08T06:53:32.725Z,9.79
2023-01-08T06:55:59.864Z,9.78
2023-01-08T06:58:28.113Z,9.85
2023-01-08T07:00:55.291Z,9.80
2023-01-08T07:03:22.466Z,9.76
2023-01-08T07:05:50.726Z,9.73
2023-01-08T07:08:19.104Z,9.66
2023-01-08T07:10:46.492Z,9.73
2023-01-08T07:13:13.982Z,9.72
2023-01-08T07:15:42.787Z,9.73
2023-01-08T07:18:12.106Z,9.82
2023-01-08T07:20:39.522Z,9.52
2023-01-08T07:23:11.955Z,9.75
2023-01-08T07:25:39.083Z,9.75
2023-01-08T07:28:06.417Z,9.56
2023-01-08T07:30:33.559Z,9.67
2023-01-08T07:33:01.946Z,9.66
2023-01-08T07:35:29.796Z,9.58
2023-01-08T07:37:57.134Z,9.67
2023-01-08T07:40:24.257Z,9.75
2023-01-08T07:43:04.532Z,9.72
2023-01-08T07:45:31.745Z,9.67
2023-01-08T07:48:00.278Z,9.59
2023-01-08T07:50:27.989Z,9.65
2023-01-08T07:53:00.762Z,9.49
2023-01-08T07:55:29.955Z,9.51
2023-01-08T07:57:57.100Z,9.60
2023-01-08T08:00:24.329Z,9.52
2023-01-08T08:02:51.534Z,9.45
2023-01-08T08:05:18.894Z,9.58
2023-01-08T08:07:46.052Z,9.50
2023-01-08T08:10:13.400Z,9.48
2023-01-08T08:12:40.498Z,9.38
2023-01-08T08:15:08.573Z,9.53
2023-01-08T08:17:35.727Z,9.50
2023-01-08T08:20:03.037Z,9.47
2023-01-08T08:22:30.400Z,9.48
2023-01-08T08:24:57.530Z,9.64
2023-01-08T08:27:24.718Z,9.69
2023-01-08T08:29:51.832Z,9.76
2023-01-08T08:32:19.002Z,9.73
2023-01-08T08:34:46.119Z,9.59
2023-01-08T08:37:13.249Z,9.38
2023-01-08T08:39:40.352Z,9.44
2023-01-08T08:42:07.476Z,9.40
2023-01-08T08:44:34.652Z,9.53
2023-01-08T08:47:01.834Z,9.53
2023-01-08T08:49:29.016Z,9.60
2023-01-08T08:51:56.176Z,9.55
2023-01-08T08:54:23.326Z,9.47
2023-01-08T08:56:50.454Z,9.46
2023-01-08T08:59:17.576Z,9.40
2023-01-08T09:01:44.754Z,9.56
2023-01-08T09:04:12.012Z,9.48
2023-01-08T09:06:39.107Z,9.61
2023-01-08T09:09:06.393Z,9.66
2023-01-08T09:11:33.580Z,9.34
2023-01-08T09:14:00.703Z,9.43
2023-01-08T09:16:27.850Z,9.48
2023-01-08T09:18:55.783Z,9.53
2023-01-08T09:21:22.915Z,9.41
2023-01-08T09:23:50.309Z,9.48
2023-01-08T09:26:17.454Z,9.52
2023-01-08T09:28:44.636Z,9.60
2023-01-08T09:31:11.896Z,9.64
2023-01-08T09:33:39.273Z,9.61
2023-01-08T09:36:11.321Z,9.65
2023-01-08T09:38:38.452Z,9.65
2023-01-08T09:41:19.755Z,9.59
2023-01-08T09:43:52.369Z,9.64
2023-01-08T09:46:24.501Z,9.65
2023-01-08T09:48:55.253Z,9.58
2023-01-08T09:51:23.115Z,9.84
2023-01-08T09:53:57.355Z,9.80
2023-01-08T09:56:24.470Z,9.78
2023-01-08T09:58:55.485Z,9.79
2023-01-08T10:01:39.349Z,9.82
2023-01-08T10:04:21.562Z,9.77
2023-01-08T10:07:05.965Z,9.80
2023-01-08T10:09:33.712Z,9.91
2023-01-08T10:12:05.256Z,9.80
2023-01-08T10:14:39.686Z,9.81
2023-01-08T10:17:40.406Z,9.78
2023-01-08T10:20:22.515Z,9.80
2023-01-08T10:22:54.133Z,9.87
2023-01-08T10:25:27.748Z,9.85
2023-01-08T10:28:00.245Z,9.87
2023-01-08T10:30:30.461Z,10.05
2023-01-08T10:33:05.914Z,10.03
2023-01-08T10:35:40.962Z,9.95
2023-01-08T10:38:35.703Z,10.01
2023-01-08T10:41:12.964Z,10.05
2023-01-08T10:44:16.466Z,9.99
2023-01-08T10:46:48.238Z,10.02
2023-01-08T10:49:28.583Z,10.05
2023-01-08T10:51:56.439Z,9.97
2023-01-08T10:54:32.812Z,9.99
2023-01-08T10:57:02.403Z,10.04
2023-01-08T10:59:29.797Z,10.01
2023-01-08T11:01:58.335Z,9.93
2023-01-08T11:04:36.026Z,9.97
2023-01-08T11:07:07.331Z,9.90
2023-01-08T11:09:45.871Z,10.03
2023-01-08T11:12:39.025Z,10.02
2023-01-08T11:15:26.457Z,10.05
2023-01-08T11:17:53.681Z,10.09
2023-01-08T11:20:28.929Z,10.07
2023-01-08T11:23:25.586Z,10.05
2023-01-08T11:26:08.676Z,9.93
2023-01-08T11:29:15.089Z,10.03
2023-01-08T11:32:09.701Z,10.02
2023-01-08T11:35:26.860Z,10.04
2023-01-08T11:38:01.795Z,10.09
2023-01-08T11:40:42.238Z,10.15
2023-01-08T11:43:27.330Z,10.17
2023-01-08T11:46:27.638Z,10.21
2023-01-08T11:49:29.279Z,10.27
2023-01-08T11:52:17.270Z,10.30
2023-01-08T11:55:35.426Z,10.35
2023-01-08T11:58:55.425Z,10.40
2023-01-08T12:02:06.437Z,10.40
2023-01-08T12:05:21.698Z,10.43
2023-01-08T12:08:01.026Z,10.43
2023-01-08T12:10:59.323Z,10.57
2023-01-08T12:13:48.306Z,10.59
2023-01-08T12:16:52.744Z,10.69
2023-01-08T12:20:15.291Z,10.56
2023-01-08T12:22:56.640Z,10.62
2023-01-08T12:25:49.399Z,10.62
2023-01-08T12:28:42.485Z,10.70
2023-01-08T12:31:48.746Z,10.62
2023-01-08T12:34:50.897Z,10.80
2023-01-08T12:37:36.071Z,10.67
2023-01-08T12:40:20.647Z,10.71
2023-01-08T12:43:00.102Z,10.68
2023-01-08T12:45:40.544Z,10.72
2023-01-08T12:48:15.580Z,10.56
2023-01-08T12:51:20.959Z,10.60
2023-01-08T12:54:33.599Z,10.65
2023-01-08T12:57:14.520Z,10.74
2023-01-08T13:00:12.665Z,10.92
2023-01-08T13:03:02.480Z,10.98
2023-01-08T13:05:38.208Z,10.83
2023-01-08T13:08:34.589Z,10.85
2023-01-08T13:11:02.875Z,11.05
2023-01-08T13:13:44.976Z,11.40
2023-01-08T13:16:12.050Z,11.49
2023-01-08T13:18:39.372Z,11.40
2023-01-08T13:21:11.723Z,11.45
2023-01-08T13:23:38.872Z,11.17
2023-01-08T13:26:07.545Z,11.04
2023-01-08T13:28:37.684Z,10.99
2023-01-08T13:31:21.168Z,11.34
2023-01-08T13:33:52.533Z,11.47
2023-01-08T13:36:29.138Z,11.76
2023-01-08T13:39:11.355Z,11.76
2023-01-08T13:41:56.234Z,11.63
2023-01-08T13:44:47.024Z,11.46
2023-01-08T13:47:42.519Z,11.49
2023-01-08T13:50:25.879Z,11.56
2023-01-08T13:53:02.072Z,11.32
2023-01-08T13:55:35.512Z,11.02
2023-01-08T13:58:18.062Z,11.16
2023-01-08T14:00:49.381Z,11.06
2023-01-08T14:03:35.866Z,10.90
2023-01-08T14:06:17.954Z,11.02
2023-01-08T14:08:59.185Z,10.99
2023-01-08T14:11:43.116Z,10.85
2023-01-08T14:14:15.057Z,10.76
2023-01-08T14:16:42.687Z,10.81
2023-01-08T14:19:24.641Z,10.81
2023-01-08T14:21:57.735Z,10.66
2023-01-08T14:24:26.097Z,10.75
2023-01-08T14:26:57.470Z,10.67
2023-01-08T14:29:29.841Z,10.59
2023-01-08T14:32:00.271Z,10.68
2023-01-08T14:34:31.801Z,10.64
2023-01-08T14:36:59.007Z,10.61
2023-01-08T14:39:38.953Z,10.48
2023-01-08T14:42:40.936Z,10.48
2023-01-08T14:45:24.428Z,10.53
2023-01-08T14:47:58.353Z,10.45
2023-01-08T14:50:38.702Z,10.37
2023-01-08T14:53:21.729Z,10.35
2023-01-08T14:55:52.436Z,10.38
2023-01-08T14:58:30.731Z,10.33
2023-01-08T15:01:02.965Z,10.32
2023-01-08T15:03:38.062Z,10.38
2023-01-08T15:06:07.451Z,10.30
2023-01-08T15:08:44.693Z,10.37
2023-01-08T15:11:31.245Z,10.27
2023-01-08T15:14:00.431Z,10.28
2023-01-08T15:16:32.763Z,10.24
2023-01-08T15:19:11.714Z,10.11
2023-01-08T15:21:45.419Z,10.18
2023-01-08T15:24:25.534Z,10.04
2023-01-08T15:26:53.870Z,10.09
2023-01-08T15:29:37.097Z,10.11
2023-01-08T15:32:13.754Z,10.12
2023-01-08T15:34:42.539Z,9.96
2023-01-08T15:37:10.158Z,10.07
2023-01-08T15:39:37.496Z,9.99
2023-01-08T15:42:48.820Z,10.05
2023-01-08T15:45:21.311Z,9.92
2023-01-08T15:47:48.620Z,10.01
2023-01-08T15:50:15.863Z,9.93
2023-01-08T15:52:43.798Z,9.99
2023-01-08T15:55:23.276Z,9.98
2023-01-08T15:57:50.933Z,9.89
2023-01-08T16:00:20.039Z,10.07
2023-01-08T16:02:50.072Z,10.11
2023-01-08T16:05:20.166Z,10.11
2023-01-08T16:07:47.694Z,10.07
2023-01-08T16:10:16.983Z,9.90
2023-01-08T16:12:44.826Z,9.88
2023-01-08T16:15:13.523Z,9.85
2023-01-08T16:17:41.908Z,9.78
2023-01-08T16:20:11.583Z,9.73
2023-01-08T16:22:39.313Z,9.70
2023-01-08T16:25:07.753Z,9.78
2023-01-08T16:27:36.053Z,9.76
2023-01-08T16:30:04.045Z,9.52
2023-01-08T16:32:31.236Z,9.60
2023-01-08T16:34:58.373Z,9.80
2023-01-08T16:37:25.488Z,9.64
2023-01-08T16:39:52.679Z,9.44
2023-01-08T16:42:19.825Z,9.48
2023-01-08T16:44:47.018Z,9.54
2023-01-08T16:47:14.338Z,9.63
2023-01-08T16:49:41.840Z,9.48
2023-01-08T16:52:09.861Z,9.64
2023-01-08T16:54:37.426Z,9.57
2023-01-08T16:57:04.814Z,9.47
2023-01-08T16:59:33.044Z,9.47
2023-01-08T17:02:00.771Z,9.54
2023-01-08T17:04:31.623Z,9.47
2023-01-08T17:06:58.789Z,9.39
2023-01-08T17:09:25.989Z,9.36
2023-01-08T17:11:53.167Z,9.43
2023-01-08T17:14:20.529Z,9.32
2023-01-08T17:16:49.065Z,9.45
2023-01-08T17:19:17.343Z,9.40
2023-01-08T17:21:45.853Z,9.54
2023-01-08T17:24:13.145Z,9.26
2023-01-08T17:26:40.307Z,9.30
2023-01-08T17:29:07.550Z,9.27
2023-01-08T17:31:39.756Z,9.22
2023-01-08T17:34:12.339Z,9.43
2023-01-08T17:36:39.519Z,9.33
2023-01-08T17:39:06.983Z,9.31
2023-01-08T17:41:54.704Z,9.33
2023-01-08T17:44:22.438Z,9.24
2023-01-08T17:46:49.568Z,9.30
2023-01-08T17:49:17.804Z,9.30
2023-01-08T17:51:45.834Z,9.34
2023-01-08T17:54:15.941Z,9.24
2023-01-08T17:56:44.137Z,9.24
2023-01-08T17:59:17.512Z,9.21
2023-01-08T18:01:45.322Z,9.20
2023-01-08T18:04:14.192Z,9.42
2023-01-08T18:06:42.899Z,9.25
2023-01-08T18:09:12.315Z,9.39
2023-01-08T18:11:41.864Z,9.42
2023-01-08T18:14:12.739Z,9.26
2023-01-08T18:16:45.209Z,9.20
2023-01-08T18:19:15.612Z,9.22
2023-01-08T18:21:44.435Z,9.12
2023-01-08T18:24:12.688Z,9.20
2023-01-08T18:26:40.610Z,9.09
2023-01-08T18:29:08.173Z,9.03
2023-01-08T18:31:35.512Z,9.38
2023-01-08T18:34:03.768Z,9.48
2023-01-08T18:36:31.032Z,9.42
2023-01-08T18:38:58.337Z,9.45
2023-01-08T18:41:43.937Z,9.38
2023-01-08T18:44:11.161Z,8.99
2023-01-08T18:46:38.766Z,8.90
2023-01-08T18:49:06.409Z,8.99
2023-01-08T18:51:33.686Z,9.08
2023-01-08T18:54:00.962Z,9.05
2023-01-08T18:56:33.509Z,9.30
2023-01-08T18:59:03.804Z,9.22
2023-01-08T19:01:32.491Z,9.39
2023-01-08T19:03:59.643Z,9.38
2023-01-08T19:06:27.185Z,9.40
2023-01-08T19:08:56.284Z,9.27
2023-01-08T19:11:25.412Z,9.30
2023-01-08T19:13:57.444Z,9.30
2023-01-08T19:16:25.089Z,9.18
2023-01-08T19:18:52.689Z,9.16
2023-01-08T19:21:20.179Z,9.23
2023-01-08T19:23:48.067Z,9.17
2023-01-08T19:26:16.282Z,9.20
2023-01-08T19:28:44.121Z,9.10
2023-01-08T19:31:14.983Z,9.18
2023-01-08T19:33:42.570Z,8.85
2023-01-08T19:36:15.830Z,8.78
2023-01-08T19:38:44.369Z,8.78
2023-01-08T19:41:31.349Z,8.80
2023-01-08T19:43:59.341Z,8.82
2023-01-08T19:46:27.371Z,8.76
2023-01-08T19:48:59.087Z,8.80
2023-01-08T19:51:27.912Z,8.85
2023-01-08T19:53:57.264Z,8.84
2023-01-08T19:56:24.580Z,9.06
2023-01-08T19:58:51.708Z,9.06
2023-01-08T20:01:22.968Z,9.02
2023-01-08T20:03:50.772Z,9.02
2023-01-08T20:06:22.359Z,8.89
2023-01-08T20:08:56.320Z,8.90
2023-01-08T20:11:24.279Z,8.92
2023-01-08T20:13:52.318Z,8.94
2023-01-08T20:16:21.443Z,8.80
2023-01-08T20:18:48.848Z,8.87
2023-01-08T20:21:23.896Z,8.79
2023-01-08T20:24:03.116Z,9.01
2023-01-08T20:26:31.767Z,8.81
2023-01-08T20:28:59.249Z,8.82
2023-01-08T20:31:30.526Z,8.79
2023-01-08T20:33:59.977Z,8.77
2023-01-08T20:36:31.019Z,8.82
2023-01-08T20:39:08.309Z,8.83
2023-01-08T20:41:35.437Z,8.91
2023-01-08T20:44:08.130Z,8.84
2023-01-08T20:46:37.792Z,8.83
2023-01-08T20:49:10.620Z,8.86
2023-01-08T20:51:44.105Z,8.76
2023-01-08T20:54:15.692Z,8.82
2023-01-08T20:56:44.521Z,8.88
2023-01-08T20:59:11.672Z,8.63
2023-01-08T21:01:38.848Z,8.73
2023-01-08T21:04:08.692Z,8.76
2023-01-08T21:06:36.405Z,8.72
2023-01-08T21:09:10.138Z,8.64
2023-01-08T21:11:40.752Z,8.76
2023-01-08T21:14:08.741Z,8.70
2023-01-08T21:16:37.108Z,8.56
2023-01-08T21:19:04.384Z,8.48
2023-01-08T21:21:35.153Z,8.52
2023-01-08T21:24:05.383Z,8.39
2023-01-08T21:26:33.851Z,8.38
2023-01-08T21:29:06.197Z,8.17
2023-01-08T21:31:35.644Z,8.17
2023-01-08T21:34:04.603Z,8.16
2023-01-08T21:36:32.973Z,8.30
2023-01-08T21:39:01.459Z,8.15
2023-01-08T21:41:49.011Z,8.23
2023-01-08T21:44:44.858Z,8.09
2023-01-08T21:47:17.908Z,8.29
2023-01-08T21:49:45.923Z,8.15
2023-01-08T21:52:32.080Z,8.17
2023-01-08T21:54:59.364Z,8.28
2023-01-08T21:57:28.029Z,8.28
2023-01-08T21:59:56.750Z,8.11
2023-01-08T22:02:24.733Z,8.16
2023-01-08T22:04:55.896Z,7.98
2023-01-08T22:07:24.763Z,8.15
2023-01-08T22:09:52.332Z,7.79
2023-01-08T22:12:20.324Z,7.92
2023-01-08T22:14:47.496Z,7.97
2023-01-08T22:17:15.179Z,7.90
2023-01-08T22:19:42.395Z,7.85
2023-01-08T22:22:11.102Z,7.76
2023-01-08T22:24:40.222Z,7.70
2023-01-08T22:27:08.665Z,7.71
2023-01-08T22:29:37.552Z,7.62
2023-01-08T22:32:05.446Z,7.83
2023-01-08T22:34:34.748Z,7.67
2023-01-08T22:37:02.577Z,7.52
2023-01-08T22:39:29.886Z,7.70
2023-01-08T22:41:57.424Z,7.30
2023-01-08T22:44:24.679Z,7.19
2023-01-08T22:46:51.796Z,7.30
2023-01-08T22:49:19.159Z,7.26
2023-01-08T22:51:46.279Z,7.29
2023-01-08T22:54:13.702Z,7.42
2023-01-08T22:56:40.938Z,7.33
2023-01-08T22:59:08.093Z,7.36
2023-01-08T23:01:35.501Z,7.56
2023-01-08T23:04:03.579Z,6.93
2023-01-08T23:06:31.681Z,7.35
2023-01-08T23:08:59.921Z,7.33
2023-01-08T23:11:27.836Z,7.29
2023-01-08T23:13:55.563Z,7.32
2023-01-08T23:16:25.160Z,7.36
2023-01-08T23:18:54.663Z,7.36
2023-01-08T23:21:26.120Z,7.20
2023-01-08T23:23:53.340Z,7.07
2023-01-08T23:26:24.991Z,7.15
2023-01-08T23:28:54.106Z,7.07
2023-01-08T23:31:25.971Z,6.85
2023-01-08T23:33:54.052Z,6.97
2023-01-08T23:36:22.292Z,6.82
2023-01-08T23:38:52.663Z,6.76
2023-01-08T23:41:23.103Z,6.70
2023-01-08T23:43:50.357Z,6.77
2023-01-08T23:46:18.161Z,7.07
2023-01-08T23:48:45.315Z,6.74
2023-01-08T23:51:12.615Z,6.46
2023-01-08T23:53:39.750Z,6.60
2023-01-08T23:56:07.609Z,6.84
2023-01-08T23:58:35.826Z,6.49
